sensor_id;sensor_type;location;lat;lon;timestamp;pressure;altitude;pressure_sealevel;temperature;humidity
54854;BME280;40747;49.480;8.658;2023-03-24T00:01:09;99329.03;;;15.16;75.69
54854;BME280;40747;49.480;8.658;2023-03-24T00:03:34;99313.47;;;14.97;75.08
54854;BME280;40747;49.480;8.658;2023-03-24T00:06:02;99327.09;;;15.05;76.84
54854;BME280;40747;49.480;8.658;2023-03-24T00:08:33;99321.25;;;15.00;75.39
54854;BME280;40747;49.480;8.658;2023-03-24T00:11:06;99328.16;;;15.03;76.77
54854;BME280;40747;49.480;8.658;2023-03-24T00:13:32;99317.28;;;14.93;75.54
54854;BME280;40747;49.480;8.658;2023-03-24T00:16:14;99314.94;;;14.88;75.08
54854;BME280;40747;49.480;8.658;2023-03-24T00:18:43;99306.69;;;14.93;75.42
54854;BME280;40747;49.480;8.658;2023-03-24T00:21:09;99297.72;;;14.81;75.41
54854;BME280;40747;49.480;8.658;2023-03-24T00:23:37;99298.28;;;14.86;74.93
54854;BME280;40747;49.480;8.658;2023-03-24T00:26:05;99293.13;;;14.98;75.40
54854;BME280;40747;49.480;8.658;2023-03-24T00:28:34;99296.69;;;14.84;74.80
54854;BME280;40747;49.480;8.658;2023-03-24T00:31:02;99298.69;;;14.80;75.09
54854;BME280;40747;49.480;8.658;2023-03-24T00:33:28;99279.84;;;14.70;74.79
54854;BME280;40747;49.480;8.658;2023-03-24T00:36:00;99272.72;;;14.85;74.53
54854;BME280;40747;49.480;8.658;2023-03-24T00:38:26;99265.41;;;14.89;74.07
54854;BME280;40747;49.480;8.658;2023-03-24T00:40:52;99259.81;;;14.94;75.55
54854;BME280;40747;49.480;8.658;2023-03-24T00:43:18;99256.59;;;14.88;73.99
54854;BME280;40747;49.480;8.658;2023-03-24T00:45:44;99249.41;;;14.90;73.52
54854;BME280;40747;49.480;8.658;2023-03-24T00:48:13;99249.69;;;14.86;73.57
54854;BME280;40747;49.480;8.658;2023-03-24T00:50:39;99234.75;;;14.85;73.54
54854;BME280;40747;49.480;8.658;2023-03-24T00:53:08;99220.00;;;14.81;73.13
54854;BME280;40747;49.480;8.658;2023-03-24T00:55:34;99226.06;;;14.83;73.35
54854;BME280;40747;49.480;8.658;2023-03-24T00:58:02;99210.44;;;14.78;73.09
54854;BME280;40747;49.480;8.658;2023-03-24T01:00:27;99213.59;;;14.70;72.85
54854;BME280;40747;49.480;8.658;2023-03-24T01:02:55;99206.84;;;14.79;73.25
54854;BME280;40747;49.480;8.658;2023-03-24T01:05:26;99204.28;;;14.78;73.51
54854;BME280;40747;49.480;8.658;2023-03-24T01:07:55;99207.50;;;14.83;73.00
54854;BME280;40747;49.480;8.658;2023-03-24T01:10:21;99201.69;;;14.90;72.55
54854;BME280;40747;49.480;8.658;2023-03-24T01:12:51;99199.47;;;14.97;72.69
54854;BME280;40747;49.480;8.658;2023-03-24T01:15:19;99198.63;;;14.97;73.95
54854;BME280;40747;49.480;8.658;2023-03-24T01:17:45;99202.44;;;14.93;73.38
54854;BME280;40747;49.480;8.658;2023-03-24T01:20:13;99198.41;;;15.00;72.33
54854;BME280;40747;49.480;8.658;2023-03-24T01:22:40;99200.88;;;15.03;72.71
54854;BME280;40747;49.480;8.658;2023-03-24T01:25:20;99194.63;;;15.04;72.36
54854;BME280;40747;49.480;8.658;2023-03-24T01:27:48;99184.59;;;14.95;71.86
54854;BME280;40747;49.480;8.658;2023-03-24T01:30:16;99192.25;;;14.86;72.51
54854;BME280;40747;49.480;8.658;2023-03-24T01:32:41;99199.56;;;14.96;71.98
54854;BME280;40747;49.480;8.658;2023-03-24T01:35:08;99202.13;;;14.97;72.45
54854;BME280;40747;49.480;8.658;2023-03-24T01:37:34;99184.19;;;15.01;71.88
54854;BME280;40747;49.480;8.658;2023-03-24T01:39:59;99176.97;;;14.90;72.13
54854;BME280;40747;49.480;8.658;2023-03-24T01:42:27;99187.38;;;15.06;71.88
54854;BME280;40747;49.480;8.658;2023-03-24T01:44:59;99185.91;;;15.15;72.30
54854;BME280;40747;49.480;8.658;2023-03-24T01:47:25;99179.03;;;15.12;71.79
54854;BME280;40747;49.480;8.658;2023-03-24T01:49:57;99159.63;;;15.12;71.81
54854;BME280;40747;49.480;8.658;2023-03-24T01:52:31;99156.44;;;15.06;71.51
54854;BME280;40747;49.480;8.658;2023-03-24T01:54:59;99134.88;;;14.98;71.51
54854;BME280;40747;49.480;8.658;2023-03-24T01:57:30;99161.22;;;15.14;71.10
54854;BME280;40747;49.480;8.658;2023-03-24T02:00:00;99161.00;;;15.17;71.35
54854;BME280;40747;49.480;8.658;2023-03-24T02:02:29;99163.66;;;15.17;70.70
54854;BME280;40747;49.480;8.658;2023-03-24T02:05:02;99163.00;;;15.27;70.33
54854;BME280;40747;49.480;8.658;2023-03-24T02:09:59;99151.84;;;15.47;70.83
54854;BME280;40747;49.480;8.658;2023-03-24T02:12:25;99162.47;;;15.47;69.60
54854;BME280;40747;49.480;8.658;2023-03-24T02:14:51;99156.75;;;15.40;69.80
54854;BME280;40747;49.480;8.658;2023-03-24T02:17:30;99160.78;;;15.46;68.98
54854;BME280;40747;49.480;8.658;2023-03-24T02:47:23;99138.59;;;15.60;68.45
54854;BME280;40747;49.480;8.658;2023-03-24T02:52:42;99124.03;;;15.66;68.22
54854;BME280;40747;49.480;8.658;2023-03-24T02:55:19;99111.75;;;15.52;68.50
54854;BME280;40747;49.480;8.658;2023-03-24T02:58:02;99117.97;;;15.64;69.05
54854;BME280;40747;49.480;8.658;2023-03-24T03:06:13;99132.13;;;15.51;68.95
54854;BME280;40747;49.480;8.658;2023-03-24T03:08:40;99134.97;;;15.61;68.57
54854;BME280;40747;49.480;8.658;2023-03-24T03:11:12;99135.41;;;15.68;68.31
54854;BME280;40747;49.480;8.658;2023-03-24T03:13:47;99131.78;;;15.69;68.50
54854;BME280;40747;49.480;8.658;2023-03-24T03:16:20;99132.75;;;15.68;68.98
54854;BME280;40747;49.480;8.658;2023-03-24T03:18:54;99124.88;;;15.66;69.32
54854;BME280;40747;49.480;8.658;2023-03-24T03:21:25;99099.66;;;15.48;68.88
54854;BME280;40747;49.480;8.658;2023-03-24T03:23:57;99115.03;;;15.55;68.76
54854;BME280;40747;49.480;8.658;2023-03-24T03:26:24;99120.00;;;15.73;69.09
54854;BME280;40747;49.480;8.658;2023-03-24T03:28:56;99121.91;;;15.71;68.70
54854;BME280;40747;49.480;8.658;2023-03-24T03:31:31;99119.13;;;15.72;68.76
54854;BME280;40747;49.480;8.658;2023-03-24T03:37:41;99125.06;;;15.76;68.82
54854;BME280;40747;49.480;8.658;2023-03-24T03:39:48;99143.97;;;15.71;68.84
54854;BME280;40747;49.480;8.658;2023-03-24T03:42:17;99154.84;;;15.55;69.63
54854;BME280;40747;49.480;8.658;2023-03-24T03:44:42;99144.44;;;15.65;69.84
54854;BME280;40747;49.480;8.658;2023-03-24T03:47:08;99166.38;;;15.67;69.54
54854;BME280;40747;49.480;8.658;2023-03-24T03:49:33;99162.28;;;15.50;69.68
54854;BME280;40747;49.480;8.658;2023-03-24T03:51:59;99156.03;;;15.38;70.75
54854;BME280;40747;49.480;8.658;2023-03-24T03:54:25;99153.25;;;15.40;69.95
54854;BME280;40747;49.480;8.658;2023-03-24T03:56:52;99160.34;;;15.39;70.48
54854;BME280;40747;49.480;8.658;2023-03-24T03:59:37;99154.22;;;15.39;69.52
54854;BME280;40747;49.480;8.658;2023-03-24T04:02:21;99174.59;;;15.38;70.21
54854;BME280;40747;49.480;8.658;2023-03-24T04:08:17;99175.44;;;15.26;71.72
54854;BME280;40747;49.480;8.658;2023-03-24T04:13:52;99197.72;;;15.23;71.96
54854;BME280;40747;49.480;8.658;2023-03-24T04:16:45;99199.41;;;15.12;73.06
54854;BME280;40747;49.480;8.658;2023-03-24T04:22:12;99207.38;;;15.12;73.30
54854;BME280;40747;49.480;8.658;2023-03-24T04:24:47;99216.25;;;15.11;73.87
54854;BME280;40747;49.480;8.658;2023-03-24T04:32:50;99239.88;;;15.01;75.55
54854;BME280;40747;49.480;8.658;2023-03-24T04:35:29;99233.09;;;14.97;77.28
54854;BME280;40747;49.480;8.658;2023-03-24T04:38:13;99245.09;;;14.75;79.83
54854;BME280;40747;49.480;8.658;2023-03-24T04:40:43;99242.13;;;14.67;80.65
54854;BME280;40747;49.480;8.658;2023-03-24T04:43:12;99254.88;;;14.74;81.19
54854;BME280;40747;49.480;8.658;2023-03-24T04:45:41;99257.16;;;14.52;81.98
54854;BME280;40747;49.480;8.658;2023-03-24T04:48:08;99254.91;;;14.46;83.21
54854;BME280;40747;49.480;8.658;2023-03-24T04:50:38;99251.03;;;14.37;84.64
54854;BME280;40747;49.480;8.658;2023-03-24T04:53:05;99245.47;;;14.41;84.85
54854;BME280;40747;49.480;8.658;2023-03-24T04:55:38;99248.59;;;14.34;86.18
54854;BME280;40747;49.480;8.658;2023-03-24T04:58:08;99253.53;;;14.25;87.29
54854;BME280;40747;49.480;8.658;2023-03-24T05:00:33;99243.88;;;14.24;88.90
54854;BME280;40747;49.480;8.658;2023-03-24T05:03:01;99211.56;;;14.05;89.72
54854;BME280;40747;49.480;8.658;2023-03-24T05:05:26;99231.94;;;14.32;90.93
54854;BME280;40747;49.480;8.658;2023-03-24T05:07:52;99231.59;;;14.23;91.75
54854;BME280;40747;49.480;8.658;2023-03-24T05:10:18;99225.63;;;14.20;93.45
54854;BME280;40747;49.480;8.658;2023-03-24T05:12:44;99235.50;;;14.03;94.76
54854;BME280;40747;49.480;8.658;2023-03-24T05:15:10;99223.09;;;13.89;96.22
54854;BME280;40747;49.480;8.658;2023-03-24T05:17:35;99230.13;;;13.76;97.87
54854;BME280;40747;49.480;8.658;2023-03-24T05:20:01;99216.97;;;13.74;98.87
54854;BME280;40747;49.480;8.658;2023-03-24T05:22:27;99221.78;;;13.68;98.63
54854;BME280;40747;49.480;8.658;2023-03-24T05:24:52;99227.19;;;13.66;100.00
54854;BME280;40747;49.480;8.658;2023-03-24T05:27:17;99225.56;;;13.64;100.00
54854;BME280;40747;49.480;8.658;2023-03-24T05:29:42;99228.84;;;13.53;100.00
54854;BME280;40747;49.480;8.658;2023-03-24T05:32:08;99245.75;;;13.50;100.00
54854;BME280;40747;49.480;8.658;2023-03-24T05:34:33;99250.47;;;13.45;100.00
54854;BME280;40747;49.480;8.658;2023-03-24T05:36:59;99259.19;;;13.47;100.00
54854;BME280;40747;49.480;8.658;2023-03-24T05:39:24;99247.50;;;13.35;100.00
54854;BME280;40747;49.480;8.658;2023-03-24T05:41:50;99249.59;;;13.30;100.00
54854;BME280;40747;49.480;8.658;2023-03-24T05:44:15;99247.09;;;13.27;100.00
54854;BME280;40747;49.480;8.658;2023-03-24T05:46:40;99243.72;;;13.25;100.00
54854;BME280;40747;49.480;8.658;2023-03-24T05:49:06;99247.88;;;13.29;100.00
54854;BME280;40747;49.480;8.658;2023-03-24T05:51:32;99228.81;;;13.08;100.00
54854;BME280;40747;49.480;8.658;2023-03-24T05:53:57;99247.97;;;13.27;100.00
54854;BME280;40747;49.480;8.658;2023-03-24T05:56:23;99245.00;;;13.18;100.00
54854;BME280;40747;49.480;8.658;2023-03-24T05:58:48;99231.75;;;13.03;100.00
54854;BME280;40747;49.480;8.658;2023-03-24T06:01:15;99252.69;;;13.22;100.00
54854;BME280;40747;49.480;8.658;2023-03-24T06:03:42;99231.88;;;13.16;100.00
54854;BME280;40747;49.480;8.658;2023-03-24T06:06:09;99236.63;;;13.25;100.00
54854;BME280;40747;49.480;8.658;2023-03-24T06:08:39;99225.66;;;13.17;100.00
54854;BME280;40747;49.480;8.658;2023-03-24T06:11:05;99225.66;;;13.17;100.00
54854;BME280;40747;49.480;8.658;2023-03-24T06:13:30;99213.84;;;13.08;100.00
54854;BME280;40747;49.480;8.658;2023-03-24T06:15:57;99229.63;;;13.24;100.00
54854;BME280;40747;49.480;8.658;2023-03-24T06:18:24;99221.31;;;13.16;100.00
54854;BME280;40747;49.480;8.658;2023-03-24T06:20:53;99229.25;;;13.16;100.00
54854;BME280;40747;49.480;8.658;2023-03-24T06:23:26;99228.69;;;13.25;100.00
54854;BME280;40747;49.480;8.658;2023-03-24T06:25:53;99232.28;;;13.24;100.00
54854;BME280;40747;49.480;8.658;2023-03-24T06:28:19;99232.38;;;13.23;100.00
54854;BME280;40747;49.480;8.658;2023-03-24T06:30:45;99247.00;;;13.28;100.00
54854;BME280;40747;49.480;8.658;2023-03-24T06:33:12;99231.59;;;13.21;100.00
54854;BME280;40747;49.480;8.658;2023-03-24T06:35:37;99237.84;;;13.20;100.00
54854;BME280;40747;49.480;8.658;2023-03-24T06:38:03;99248.09;;;13.10;100.00
54854;BME280;40747;49.480;8.658;2023-03-24T06:40:29;99241.00;;;13.10;100.00
54854;BME280;40747;49.480;8.658;2023-03-24T06:42:55;99240.75;;;13.15;100.00
54854;BME280;40747;49.480;8.658;2023-03-24T06:45:20;99241.31;;;13.06;100.00
54854;BME280;40747;49.480;8.658;2023-03-24T06:47:46;99254.56;;;13.20;100.00
54854;BME280;40747;49.480;8.658;2023-03-24T06:50:11;99253.72;;;13.20;100.00
54854;BME280;40747;49.480;8.658;2023-03-24T06:52:37;99273.19;;;13.33;100.00
54854;BME280;40747;49.480;8.658;2023-03-24T06:55:03;99277.63;;;13.33;100.00
54854;BME280;40747;49.480;8.658;2023-03-24T06:57:29;99277.31;;;13.39;100.00
54854;BME280;40747;49.480;8.658;2023-03-24T06:59:54;99292.78;;;13.45;100.00
54854;BME280;40747;49.480;8.658;2023-03-24T07:02:20;99290.16;;;13.45;100.00
54854;BME280;40747;49.480;8.658;2023-03-24T07:04:46;99294.25;;;13.51;100.00
54854;BME280;40747;49.480;8.658;2023-03-24T07:07:13;99301.69;;;13.44;100.00
54854;BME280;40747;49.480;8.658;2023-03-24T07:09:39;99296.03;;;13.50;100.00
54854;BME280;40747;49.480;8.658;2023-03-24T07:12:05;99291.59;;;13.51;100.00
54854;BME280;40747;49.480;8.658;2023-03-24T07:14:31;99302.00;;;13.54;100.00
54854;BME280;40747;49.480;8.658;2023-03-24T07:16:56;99298.66;;;13.50;100.00
54854;BME280;40747;49.480;8.658;2023-03-24T07:19:23;99304.72;;;13.52;100.00
54854;BME280;40747;49.480;8.658;2023-03-24T07:21:48;99313.59;;;13.51;100.00
54854;BME280;40747;49.480;8.658;2023-03-24T07:24:17;99312.75;;;13.51;100.00
54854;BME280;40747;49.480;8.658;2023-03-24T07:26:43;99309.56;;;13.60;100.00
54854;BME280;40747;49.480;8.658;2023-03-24T07:29:08;99308.06;;;13.56;100.00
54854;BME280;40747;49.480;8.658;2023-03-24T07:31:34;99302.88;;;13.69;100.00
54854;BME280;40747;49.480;8.658;2023-03-24T07:34:03;99299.09;;;13.73;100.00
54854;BME280;40747;49.480;8.658;2023-03-24T07:36:29;99300.59;;;13.77;100.00
54854;BME280;40747;49.480;8.658;2023-03-24T07:38:55;99296.53;;;13.71;100.00
54854;BME280;40747;49.480;8.658;2023-03-24T07:41:21;99297.38;;;13.72;100.00
54854;BME280;40747;49.480;8.658;2023-03-24T07:43:46;99290.09;;;13.61;100.00
54854;BME280;40747;49.480;8.658;2023-03-24T07:46:12;99288.34;;;13.76;100.00
54854;BME280;40747;49.480;8.658;2023-03-24T07:48:37;99283.06;;;13.76;100.00
54854;BME280;40747;49.480;8.658;2023-03-24T07:51:03;99274.81;;;13.81;100.00
54854;BME280;40747;49.480;8.658;2023-03-24T07:53:28;99274.91;;;13.79;100.00
54854;BME280;40747;49.480;8.658;2023-03-24T07:55:53;99279.44;;;13.77;100.00
54854;BME280;40747;49.480;8.658;2023-03-24T07:58:19;99278.94;;;13.56;100.00
54854;BME280;40747;49.480;8.658;2023-03-24T08:00:44;99281.31;;;13.60;100.00
54854;BME280;40747;49.480;8.658;2023-03-24T08:03:13;99286.00;;;13.55;100.00
54854;BME280;40747;49.480;8.658;2023-03-24T08:05:39;99294.72;;;13.57;100.00
54854;BME280;40747;49.480;8.658;2023-03-24T08:08:05;99293.59;;;13.62;100.00
54854;BME280;40747;49.480;8.658;2023-03-24T08:10:31;99283.31;;;13.57;100.00
54854;BME280;40747;49.480;8.658;2023-03-24T08:12:58;99278.06;;;13.55;100.00
54854;BME280;40747;49.480;8.658;2023-03-24T08:15:24;99285.50;;;13.65;100.00
54854;BME280;40747;49.480;8.658;2023-03-24T08:17:50;99280.78;;;13.70;100.00
54854;BME280;40747;49.480;8.658;2023-03-24T08:20:17;99280.31;;;13.77;100.00
54854;BME280;40747;49.480;8.658;2023-03-24T08:22:45;99289.56;;;13.85;100.00
54854;BME280;40747;49.480;8.658;2023-03-24T08:25:16;99288.03;;;13.81;100.00
54854;BME280;40747;49.480;8.658;2023-03-24T08:27:42;99296.81;;;13.67;100.00
54854;BME280;40747;49.480;8.658;2023-03-24T08:30:10;99298.41;;;13.69;100.00
54854;BME280;40747;49.480;8.658;2023-03-24T08:32:42;99290.94;;;13.62;100.00
54854;BME280;40747;49.480;8.658;2023-03-24T08:35:10;99302.09;;;13.67;100.00
54854;BME280;40747;49.480;8.658;2023-03-24T08:37:36;99292.28;;;13.69;100.00
54854;BME280;40747;49.480;8.658;2023-03-24T08:40:02;99309.38;;;13.63;100.00
54854;BME280;40747;49.480;8.658;2023-03-24T08:42:29;99289.06;;;13.49;100.00
54854;BME280;40747;49.480;8.658;2023-03-24T08:44:54;99302.09;;;13.52;100.00
54854;BME280;40747;49.480;8.658;2023-03-24T08:47:20;99293.47;;;13.49;100.00
54854;BME280;40747;49.480;8.658;2023-03-24T08:49:45;99311.16;;;13.48;100.00
54854;BME280;40747;49.480;8.658;2023-03-24T08:52:10;99310.47;;;13.44;100.00
54854;BME280;40747;49.480;8.658;2023-03-24T08:54:36;99301.41;;;13.49;100.00
54854;BME280;40747;49.480;8.658;2023-03-24T08:57:01;99301.63;;;13.60;100.00
54854;BME280;40747;49.480;8.658;2023-03-24T08:59:26;99311.19;;;13.63;100.00
54854;BME280;40747;49.480;8.658;2023-03-24T09:01:52;99313.47;;;13.69;100.00
54854;BME280;40747;49.480;8.658;2023-03-24T09:04:17;99310.09;;;13.81;100.00
54854;BME280;40747;49.480;8.658;2023-03-24T09:06:42;99302.16;;;13.81;100.00
54854;BME280;40747;49.480;8.658;2023-03-24T09:09:08;99280.88;;;13.68;100.00
54854;BME280;40747;49.480;8.658;2023-03-24T09:11:33;99309.69;;;13.87;100.00
54854;BME280;40747;49.480;8.658;2023-03-24T09:13:58;99297.03;;;13.92;100.00
54854;BME280;40747;49.480;8.658;2023-03-24T09:16:24;99306.88;;;13.90;100.00
54854;BME280;40747;49.480;8.658;2023-03-24T09:18:49;99315.13;;;14.00;100.00
54854;BME280;40747;49.480;8.658;2023-03-24T09:21:15;99322.09;;;14.01;100.00
54854;BME280;40747;49.480;8.658;2023-03-24T09:23:41;99315.59;;;14.07;100.00
54854;BME280;40747;49.480;8.658;2023-03-24T09:26:06;99317.88;;;14.13;99.60
54854;BME280;40747;49.480;8.658;2023-03-24T09:28:32;99312.38;;;14.16;99.14
54854;BME280;40747;49.480;8.658;2023-03-24T09:30:59;99322.97;;;14.16;99.10
54854;BME280;40747;49.480;8.658;2023-03-24T09:33:25;99317.19;;;14.09;99.52
54854;BME280;40747;49.480;8.658;2023-03-24T09:35:58;99322.28;;;14.13;99.53
54854;BME280;40747;49.480;8.658;2023-03-24T09:38:24;99319.75;;;14.11;99.50
54854;BME280;40747;49.480;8.658;2023-03-24T09:40:55;99321.94;;;14.04;99.99
54854;BME280;40747;49.480;8.658;2023-03-24T09:43:43;99319.06;;;13.93;100.00
54854;BME280;40747;49.480;8.658;2023-03-24T09:46:14;99303.00;;;13.96;100.00
54854;BME280;40747;49.480;8.658;2023-03-24T09:49:12;99306.50;;;13.97;100.00
54854;BME280;40747;49.480;8.658;2023-03-24T09:51:43;99304.44;;;14.02;99.43
54854;BME280;40747;49.480;8.658;2023-03-24T09:54:31;99317.56;;;14.03;99.27
54854;BME280;40747;49.480;8.658;2023-03-24T09:57:01;99312.16;;;14.05;99.74
54854;BME280;40747;49.480;8.658;2023-03-24T09:59:30;99322.09;;;13.87;99.75
54854;BME280;40747;49.480;8.658;2023-03-24T10:01:56;99327.94;;;13.92;100.00
54854;BME280;40747;49.480;8.658;2023-03-24T10:04:25;99327.22;;;14.04;100.00
54854;BME280;40747;49.480;8.658;2023-03-24T10:06:59;99334.06;;;13.78;99.92
54854;BME280;40747;49.480;8.658;2023-03-24T10:09:32;99334.28;;;13.89;100.00
54854;BME280;40747;49.480;8.658;2023-03-24T10:14:57;99334.44;;;13.72;100.00
54854;BME280;40747;49.480;8.658;2023-03-24T10:17:40;99337.59;;;13.79;100.00
54854;BME280;40747;49.480;8.658;2023-03-24T10:20:35;99332.94;;;13.68;100.00
54854;BME280;40747;49.480;8.658;2023-03-24T10:23:43;99341.44;;;13.73;100.00
54854;BME280;40747;49.480;8.658;2023-03-24T10:28:50;99347.66;;;13.72;100.00
54854;BME280;40747;49.480;8.658;2023-03-24T10:31:23;99356.47;;;13.72;100.00
54854;BME280;40747;49.480;8.658;2023-03-24T10:33:55;99346.28;;;13.50;100.00
54854;BME280;40747;49.480;8.658;2023-03-24T10:36:21;99336.00;;;13.46;100.00
54854;BME280;40747;49.480;8.658;2023-03-24T10:38:47;99354.34;;;13.63;100.00
54854;BME280;40747;49.480;8.658;2023-03-24T10:41:21;99355.03;;;13.67;100.00
54854;BME280;40747;49.480;8.658;2023-03-24T10:43:49;99355.59;;;13.72;100.00
54854;BME280;40747;49.480;8.658;2023-03-24T10:46:19;99362.81;;;13.70;100.00
54854;BME280;40747;49.480;8.658;2023-03-24T10:48:48;99366.50;;;13.82;100.00
54854;BME280;40747;49.480;8.658;2023-03-24T10:51:15;99370.09;;;13.81;100.00
54854;BME280;40747;49.480;8.658;2023-03-24T10:53:42;99372.38;;;13.87;100.00
54854;BME280;40747;49.480;8.658;2023-03-24T10:56:07;99364.22;;;13.75;100.00
54854;BME280;40747;49.480;8.658;2023-03-24T10:58:39;99372.06;;;13.77;100.00
54854;BME280;40747;49.480;8.658;2023-03-24T11:01:26;99359.88;;;13.74;100.00
54854;BME280;40747;49.480;8.658;2023-03-24T11:03:59;99368.59;;;13.76;100.00
54854;BME280;40747;49.480;8.658;2023-03-24T11:06:25;99372.84;;;13.79;100.00
54854;BME280;40747;49.480;8.658;2023-03-24T11:09:07;99346.56;;;13.76;100.00
54854;BME280;40747;49.480;8.658;2023-03-24T11:11:33;99363.09;;;13.80;100.00
54854;BME280;40747;49.480;8.658;2023-03-24T11:14:00;99351.47;;;13.82;100.00
54854;BME280;40747;49.480;8.658;2023-03-24T11:16:29;99399.88;;;13.84;100.00
54854;BME280;40747;49.480;8.658;2023-03-24T11:19:01;99436.81;;;13.55;100.00
54854;BME280;40747;49.480;8.658;2023-03-24T11:21:29;99443.56;;;13.13;100.00
54854;BME280;40747;49.480;8.658;2023-03-24T11:24:00;99434.53;;;13.01;100.00
54854;BME280;40747;49.480;8.658;2023-03-24T11:26:35;99439.72;;;13.03;100.00
54854;BME280;40747;49.480;8.658;2023-03-24T11:29:09;99437.00;;;12.88;100.00
54854;BME280;40747;49.480;8.658;2023-03-24T11:31:38;99430.25;;;12.83;100.00
54854;BME280;40747;49.480;8.658;2023-03-24T11:34:16;99433.50;;;12.88;100.00
54854;BME280;40747;49.480;8.658;2023-03-24T11:36:58;99424.88;;;12.84;100.00
54854;BME280;40747;49.480;8.658;2023-03-24T11:39:32;99420.53;;;13.15;100.00
54854;BME280;40747;49.480;8.658;2023-03-24T11:42:04;99430.19;;;13.48;100.00
54854;BME280;40747;49.480;8.658;2023-03-24T11:47:07;99415.31;;;13.92;100.00
54854;BME280;40747;49.480;8.658;2023-03-24T11:49:41;99417.63;;;14.13;100.00
54854;BME280;40747;49.480;8.658;2023-03-24T11:52:14;99410.94;;;14.21;98.73
54854;BME280;40747;49.480;8.658;2023-03-24T11:54:45;99405.16;;;14.15;98.94
54854;BME280;40747;49.480;8.658;2023-03-24T11:57:12;99417.94;;;14.22;98.43
54854;BME280;40747;49.480;8.658;2023-03-24T11:59:47;99417.38;;;14.32;97.74
54854;BME280;40747;49.480;8.658;2023-03-24T12:02:18;99424.56;;;14.44;97.88
54854;BME280;40747;49.480;8.658;2023-03-24T12:05:09;99425.13;;;14.64;95.90
54854;BME280;40747;49.480;8.658;2023-03-24T12:07:54;99407.75;;;14.74;95.97
54854;BME280;40747;49.480;8.658;2023-03-24T12:15:52;99409.22;;;15.07;96.85
54854;BME280;40747;49.480;8.658;2023-03-24T12:24:01;99399.38;;;15.09;95.54
54854;BME280;40747;49.480;8.658;2023-03-24T12:26:33;99402.75;;;15.26;93.59
54854;BME280;40747;49.480;8.658;2023-03-24T12:35:31;99387.53;;;15.00;94.90
54854;BME280;40747;49.480;8.658;2023-03-24T12:38:05;99395.59;;;14.99;95.96
54854;BME280;40747;49.480;8.658;2023-03-24T12:41:02;99396.16;;;15.31;95.78
54854;BME280;40747;49.480;8.658;2023-03-24T12:47:13;99379.53;;;15.69;96.60
54854;BME280;40747;49.480;8.658;2023-03-24T12:54:59;99386.47;;;15.85;90.97
54854;BME280;40747;49.480;8.658;2023-03-24T12:57:33;99387.25;;;16.00;94.35
54854;BME280;40747;49.480;8.658;2023-03-24T13:00:05;99388.22;;;16.12;90.28
54854;BME280;40747;49.480;8.658;2023-03-24T13:02:47;99365.06;;;16.27;94.61
54854;BME280;40747;49.480;8.658;2023-03-24T13:05:40;99384.47;;;16.01;91.24
54854;BME280;40747;49.480;8.658;2023-03-24T13:08:20;99381.47;;;15.93;91.35
54854;BME280;40747;49.480;8.658;2023-03-24T13:10:49;99394.03;;;15.64;90.68
54854;BME280;40747;49.480;8.658;2023-03-24T13:13:20;99383.50;;;15.49;87.17
54854;BME280;40747;49.480;8.658;2023-03-24T13:18:41;99376.09;;;15.95;86.77
54854;BME280;40747;49.480;8.658;2023-03-24T13:21:13;99359.19;;;15.96;82.53
54854;BME280;40747;49.480;8.658;2023-03-24T13:31:31;99376.72;;;16.11;78.62
54854;BME280;40747;49.480;8.658;2023-03-24T13:34:02;99393.00;;;16.07;76.68
54854;BME280;40747;49.480;8.658;2023-03-24T13:39:20;99395.41;;;15.56;83.69
54854;BME280;40747;49.480;8.658;2023-03-24T13:41:49;99390.25;;;15.68;80.70
54854;BME280;40747;49.480;8.658;2023-03-24T13:44:21;99387.38;;;15.71;75.34
54854;BME280;40747;49.480;8.658;2023-03-24T13:47:07;99387.31;;;15.45;78.32
54854;BME280;40747;49.480;8.658;2023-03-24T13:49:34;99379.53;;;15.69;80.93
54854;BME280;40747;49.480;8.658;2023-03-24T13:52:04;99388.56;;;15.80;76.63
54854;BME280;40747;49.480;8.658;2023-03-24T13:54:31;99376.13;;;15.80;76.68
54854;BME280;40747;49.480;8.658;2023-03-24T13:57:04;99388.47;;;15.81;73.70
54854;BME280;40747;49.480;8.658;2023-03-24T13:59:38;99380.16;;;15.73;74.64
54854;BME280;40747;49.480;8.658;2023-03-24T14:02:19;99364.94;;;15.89;73.94
54854;BME280;40747;49.480;8.658;2023-03-24T14:05:05;99351.09;;;16.36;71.48
54854;BME280;40747;49.480;8.658;2023-03-24T14:07:42;99352.81;;;16.37;69.82
54854;BME280;40747;49.480;8.658;2023-03-24T14:15:29;99358.19;;;17.11;74.16
54854;BME280;40747;49.480;8.658;2023-03-24T14:23:39;99356.75;;;17.18;63.19
54854;BME280;40747;49.480;8.658;2023-03-24T14:26:11;99359.91;;;17.12;61.43
54854;BME280;40747;49.480;8.658;2023-03-24T14:31:09;99347.09;;;17.17;64.03
54854;BME280;40747;49.480;8.658;2023-03-24T14:36:39;99347.13;;;17.04;60.81
54854;BME280;40747;49.480;8.658;2023-03-24T14:41:51;99343.25;;;17.22;58.80
54854;BME280;40747;49.480;8.658;2023-03-24T14:47:10;99343.34;;;16.96;63.34
54854;BME280;40747;49.480;8.658;2023-03-24T14:49:43;99342.38;;;16.97;61.99
54854;BME280;40747;49.480;8.658;2023-03-24T14:52:11;99354.44;;;16.77;63.22
54854;BME280;40747;49.480;8.658;2023-03-24T14:54:47;99341.69;;;16.69;64.29
54854;BME280;40747;49.480;8.658;2023-03-24T14:57:22;99343.88;;;16.51;65.38
54854;BME280;40747;49.480;8.658;2023-03-24T15:00:16;99345.00;;;16.60;66.65
54854;BME280;40747;49.480;8.658;2023-03-24T15:03:00;99344.91;;;16.61;65.93
54854;BME280;40747;49.480;8.658;2023-03-24T15:08:16;99351.09;;;16.49;68.45
54854;BME280;40747;49.480;8.658;2023-03-24T15:11:04;99341.72;;;16.43;68.29
54854;BME280;40747;49.480;8.658;2023-03-24T15:13:38;99342.06;;;16.38;71.88
54854;BME280;40747;49.480;8.658;2023-03-24T15:18:54;99338.25;;;16.17;76.33
54854;BME280;40747;49.480;8.658;2023-03-24T15:21:29;99332.19;;;16.02;75.98